sensor_id;sensor_type;location;lat;lon;timestamp;P1;durP1;ratioP1;P2;durP2;ratioP2
6195;SDS011;3131;42.630;23.382;2023-02-28T00:00:30;27.63;;;14.10;;
6195;SDS011;3131;42.630;23.382;2023-02-28T00:02:58;28.77;;;15.20;;
6195;SDS011;3131;42.630;23.382;2023-02-28T00:05:26;29.03;;;14.30;;
6195;SDS011;3131;42.630;23.382;2023-02-28T00:07:54;35.23;;;14.83;;
6195;SDS011;3131;42.630;23.382;2023-02-28T00:10:22;34.30;;;16.93;;
6195;SDS011;3131;42.630;23.382;2023-02-28T00:12:50;28.07;;;14.10;;
6195;SDS011;3131;42.630;23.382;2023-02-28T00:15:18;26.93;;;14.47;;
6195;SDS011;3131;42.630;23.382;2023-02-28T00:17:47;32.27;;;15.30;;
6195;SDS011;3131;42.630;23.382;2023-02-28T00:22:43;26.83;;;14.87;;
6195;SDS011;3131;42.630;23.382;2023-02-28T00:25:12;30.60;;;16.03;;
6195;SDS011;3131;42.630;23.382;2023-02-28T00:27:41;30.13;;;15.60;;
6195;SDS011;3131;42.630;23.382;2023-02-28T00:30:10;30.03;;;14.97;;
6195;SDS011;3131;42.630;23.382;2023-02-28T00:32:38;31.97;;;15.70;;
6195;SDS011;3131;42.630;23.382;2023-02-28T00:35:07;37.47;;;16.53;;
6195;SDS011;3131;42.630;23.382;2023-02-28T00:37:35;36.93;;;17.70;;
6195;SDS011;3131;42.630;23.382;2023-02-28T00:40:03;36.50;;;16.83;;
6195;SDS011;3131;42.630;23.382;2023-02-28T00:42:32;34.57;;;17.00;;
6195;SDS011;3131;42.630;23.382;2023-02-28T00:45:00;32.57;;;16.27;;
6195;SDS011;3131;42.630;23.382;2023-02-28T00:47:29;40.47;;;17.53;;
6195;SDS011;3131;42.630;23.382;2023-02-28T00:49:56;34.83;;;16.63;;
6195;SDS011;3131;42.630;23.382;2023-02-28T00:52:24;35.13;;;16.13;;
6195;SDS011;3131;42.630;23.382;2023-02-28T00:54:52;36.77;;;17.10;;
6195;SDS011;3131;42.630;23.382;2023-02-28T00:57:20;31.37;;;15.83;;
6195;SDS011;3131;42.630;23.382;2023-02-28T00:59:48;33.63;;;16.83;;
6195;SDS011;3131;42.630;23.382;2023-02-28T01:02:16;35.00;;;17.53;;
6195;SDS011;3131;42.630;23.382;2023-02-28T01:04:46;33.53;;;16.13;;
6195;SDS011;3131;42.630;23.382;2023-02-28T01:07:14;38.30;;;17.63;;
6195;SDS011;3131;42.630;23.382;2023-02-28T01:09:42;35.23;;;18.13;;
6195;SDS011;3131;42.630;23.382;2023-02-28T01:12:10;36.60;;;17.23;;
6195;SDS011;3131;42.630;23.382;2023-02-28T01:14:38;35.33;;;17.63;;
6195;SDS011;3131;42.630;23.382;2023-02-28T01:17:06;36.30;;;17.83;;
6195;SDS011;3131;42.630;23.382;2023-02-28T01:19:34;34.17;;;17.90;;
6195;SDS011;3131;42.630;23.382;2023-02-28T01:22:02;34.27;;;17.80;;
6195;SDS011;3131;42.630;23.382;2023-02-28T01:24:31;37.43;;;19.10;;
6195;SDS011;3131;42.630;23.382;2023-02-28T01:26:59;34.23;;;18.27;;
6195;SDS011;3131;42.630;23.382;2023-02-28T01:29:26;37.53;;;17.67;;
6195;SDS011;3131;42.630;23.382;2023-02-28T01:31:54;41.87;;;18.77;;
6195;SDS011;3131;42.630;23.382;2023-02-28T01:34:23;35.37;;;17.57;;
6195;SDS011;3131;42.630;23.382;2023-02-28T01:36:51;37.47;;;19.03;;
6195;SDS011;3131;42.630;23.382;2023-02-28T01:39:18;36.73;;;18.63;;
6195;SDS011;3131;42.630;23.382;2023-02-28T01:41:46;35.73;;;18.07;;
6195;SDS011;3131;42.630;23.382;2023-02-28T01:46:59;35.80;;;18.03;;
6195;SDS011;3131;42.630;23.382;2023-02-28T01:49:27;37.53;;;18.57;;
6195;SDS011;3131;42.630;23.382;2023-02-28T01:51:54;41.47;;;17.20;;
6195;SDS011;3131;42.630;23.382;2023-02-28T01:54:26;41.97;;;19.40;;
6195;SDS011;3131;42.630;23.382;2023-02-28T01:56:54;37.90;;;18.87;;
6195;SDS011;3131;42.630;23.382;2023-02-28T01:59:23;45.07;;;19.33;;
6195;SDS011;3131;42.630;23.382;2023-02-28T02:01:51;36.23;;;17.47;;
6195;SDS011;3131;42.630;23.382;2023-02-28T02:04:20;37.90;;;17.17;;
6195;SDS011;3131;42.630;23.382;2023-02-28T02:06:48;41.27;;;19.83;;
6195;SDS011;3131;42.630;23.382;2023-02-28T02:09:16;43.43;;;20.63;;
6195;SDS011;3131;42.630;23.382;2023-02-28T02:11:44;44.20;;;19.40;;
6195;SDS011;3131;42.630;23.382;2023-02-28T02:14:16;40.27;;;19.47;;
6195;SDS011;3131;42.630;23.382;2023-02-28T02:16:47;37.73;;;17.77;;
6195;SDS011;3131;42.630;23.382;2023-02-28T02:24:49;54.40;;;20.20;;
6195;SDS011;3131;42.630;23.382;2023-02-28T02:27:22;48.43;;;19.40;;
6195;SDS011;3131;42.630;23.382;2023-02-28T02:29:57;47.60;;;20.60;;
6195;SDS011;3131;42.630;23.382;2023-02-28T02:32:29;38.63;;;18.60;;
6195;SDS011;3131;42.630;23.382;2023-02-28T02:35:00;39.70;;;19.10;;
6195;SDS011;3131;42.630;23.382;2023-02-28T02:37:31;43.70;;;19.50;;
6195;SDS011;3131;42.630;23.382;2023-02-28T02:40:00;40.53;;;19.53;;
6195;SDS011;3131;42.630;23.382;2023-02-28T02:42:31;35.60;;;18.60;;
6195;SDS011;3131;42.630;23.382;2023-02-28T02:44:59;38.37;;;19.07;;
6195;SDS011;3131;42.630;23.382;2023-02-28T02:47:29;40.97;;;19.97;;
6195;SDS011;3131;42.630;23.382;2023-02-28T02:49:57;39.47;;;18.30;;
6195;SDS011;3131;42.630;23.382;2023-02-28T02:52:29;48.30;;;19.37;;
6195;SDS011;3131;42.630;23.382;2023-02-28T02:54:57;46.73;;;21.33;;
6195;SDS011;3131;42.630;23.382;2023-02-28T02:57:26;40.57;;;18.70;;
6195;SDS011;3131;42.630;23.382;2023-02-28T02:59:54;48.00;;;19.60;;
6195;SDS011;3131;42.630;23.382;2023-02-28T03:02:23;44.13;;;19.37;;
6195;SDS011;3131;42.630;23.382;2023-02-28T03:04:52;49.13;;;21.60;;
6195;SDS011;3131;42.630;23.382;2023-02-28T03:07:21;48.00;;;19.63;;
6195;SDS011;3131;42.630;23.382;2023-02-28T03:09:52;45.43;;;21.13;;
6195;SDS011;3131;42.630;23.382;2023-02-28T03:12:20;50.47;;;22.23;;
6195;SDS011;3131;42.630;23.382;2023-02-28T03:14:51;49.03;;;20.83;;
6195;SDS011;3131;42.630;23.382;2023-02-28T03:17:23;57.13;;;24.67;;
6195;SDS011;3131;42.630;23.382;2023-02-28T03:19:53;81.97;;;23.07;;
6195;SDS011;3131;42.630;23.382;2023-02-28T03:22:28;86.57;;;22.33;;
6195;SDS011;3131;42.630;23.382;2023-02-28T03:24:56;130.37;;;25.40;;
6195;SDS011;3131;42.630;23.382;2023-02-28T03:27:26;107.07;;;25.10;;
6195;SDS011;3131;42.630;23.382;2023-02-28T03:29:56;99.73;;;24.47;;
6195;SDS011;3131;42.630;23.382;2023-02-28T03:32:25;70.27;;;23.73;;
6195;SDS011;3131;42.630;23.382;2023-02-28T03:34:54;68.07;;;23.30;;
6195;SDS011;3131;42.630;23.382;2023-02-28T03:37:23;59.90;;;24.67;;
6195;SDS011;3131;42.630;23.382;2023-02-28T03:39:53;75.07;;;26.43;;
6195;SDS011;3131;42.630;23.382;2023-02-28T03:42:20;51.43;;;23.17;;
6195;SDS011;3131;42.630;23.382;2023-02-28T03:44:51;66.37;;;26.53;;
6195;SDS011;3131;42.630;23.382;2023-02-28T03:47:19;61.33;;;24.53;;
6195;SDS011;3131;42.630;23.382;2023-02-28T03:49:48;62.20;;;24.50;;
6195;SDS011;3131;42.630;23.382;2023-02-28T03:52:16;64.57;;;25.30;;
6195;SDS011;3131;42.630;23.382;2023-02-28T03:54:45;73.30;;;25.83;;
6195;SDS011;3131;42.630;23.382;2023-02-28T03:57:15;68.40;;;25.17;;
6195;SDS011;3131;42.630;23.382;2023-02-28T03:59:43;57.77;;;23.67;;
6195;SDS011;3131;42.630;23.382;2023-02-28T04:02:11;61.53;;;25.50;;
6195;SDS011;3131;42.630;23.382;2023-02-28T04:04:39;66.73;;;26.70;;
6195;SDS011;3131;42.630;23.382;2023-02-28T04:07:09;59.90;;;24.70;;
6195;SDS011;3131;42.630;23.382;2023-02-28T04:09:38;76.23;;;25.03;;
6195;SDS011;3131;42.630;23.382;2023-02-28T04:12:06;65.20;;;25.23;;
6195;SDS011;3131;42.630;23.382;2023-02-28T04:14:34;67.27;;;25.63;;
6195;SDS011;3131;42.630;23.382;2023-02-28T04:17:02;66.53;;;23.97;;
6195;SDS011;3131;42.630;23.382;2023-02-28T04:19:29;105.40;;;25.73;;
6195;SDS011;3131;42.630;23.382;2023-02-28T04:21:57;77.43;;;26.60;;
6195;SDS011;3131;42.630;23.382;2023-02-28T04:24:25;80.60;;;24.17;;
6195;SDS011;3131;42.630;23.382;2023-02-28T04:26:54;140.37;;;27.07;;
6195;SDS011;3131;42.630;23.382;2023-02-28T04:29:22;186.33;;;29.30;;
6195;SDS011;3131;42.630;23.382;2023-02-28T04:31:51;81.67;;;23.13;;
6195;SDS011;3131;42.630;23.382;2023-02-28T04:34:19;82.93;;;22.80;;
6195;SDS011;3131;42.630;23.382;2023-02-28T04:36:47;82.87;;;25.37;;
6195;SDS011;3131;42.630;23.382;2023-02-28T04:39:16;57.17;;;21.93;;
6195;SDS011;3131;42.630;23.382;2023-02-28T04:41:45;88.13;;;23.20;;
6195;SDS011;3131;42.630;23.382;2023-02-28T04:44:13;61.60;;;19.40;;
6195;SDS011;3131;42.630;23.382;2023-02-28T04:46:42;80.33;;;20.80;;
6195;SDS011;3131;42.630;23.382;2023-02-28T04:49:10;104.57;;;20.03;;
6195;SDS011;3131;42.630;23.382;2023-02-28T04:51:38;74.37;;;21.37;;
6195;SDS011;3131;42.630;23.382;2023-02-28T04:54:06;171.80;;;24.83;;
6195;SDS011;3131;42.630;23.382;2023-02-28T04:56:33;195.27;;;26.87;;
6195;SDS011;3131;42.630;23.382;2023-02-28T04:59:02;189.70;;;24.03;;
6195;SDS011;3131;42.630;23.382;2023-02-28T05:01:30;101.67;;;24.03;;
6195;SDS011;3131;42.630;23.382;2023-02-28T05:04:00;117.07;;;23.50;;
6195;SDS011;3131;42.630;23.382;2023-02-28T05:06:29;172.57;;;23.77;;
6195;SDS011;3131;42.630;23.382;2023-02-28T05:08:57;194.77;;;25.00;;
6195;SDS011;3131;42.630;23.382;2023-02-28T05:11:26;114.53;;;21.77;;
6195;SDS011;3131;42.630;23.382;2023-02-28T05:13:55;296.83;;;29.73;;
6195;SDS011;3131;42.630;23.382;2023-02-28T05:16:23;124.27;;;23.93;;
6195;SDS011;3131;42.630;23.382;2023-02-28T05:18:50;239.97;;;28.03;;
6195;SDS011;3131;42.630;23.382;2023-02-28T05:21:27;107.43;;;23.10;;
6195;SDS011;3131;42.630;23.382;2023-02-28T05:23:55;74.67;;;21.77;;
6195;SDS011;3131;42.630;23.382;2023-02-28T05:26:23;61.30;;;23.87;;
6195;SDS011;3131;42.630;23.382;2023-02-28T05:28:51;69.83;;;22.70;;
6195;SDS011;3131;42.630;23.382;2023-02-28T05:31:19;62.67;;;22.30;;
6195;SDS011;3131;42.630;23.382;2023-02-28T05:33:46;62.23;;;23.03;;
6195;SDS011;3131;42.630;23.382;2023-02-28T05:36:14;86.97;;;31.57;;
6195;SDS011;3131;42.630;23.382;2023-02-28T05:38:42;51.20;;;22.53;;
6195;SDS011;3131;42.630;23.382;2023-02-28T05:41:10;70.10;;;24.27;;
6195;SDS011;3131;42.630;23.382;2023-02-28T05:43:38;55.53;;;23.17;;
6195;SDS011;3131;42.630;23.382;2023-02-28T05:46:06;60.03;;;24.87;;
6195;SDS011;3131;42.630;23.382;2023-02-28T05:48:34;60.87;;;23.77;;
6195;SDS011;3131;42.630;23.382;2023-02-28T05:51:03;56.53;;;23.80;;
6195;SDS011;3131;42.630;23.382;2023-02-28T05:53:31;61.70;;;24.67;;
6195;SDS011;3131;42.630;23.382;2023-02-28T05:55:59;56.07;;;23.43;;
6195;SDS011;3131;42.630;23.382;2023-02-28T05:58:27;48.20;;;21.93;;
6195;SDS011;3131;42.630;23.382;2023-02-28T06:00:56;55.87;;;23.83;;
6195;SDS011;3131;42.630;23.382;2023-02-28T06:03:24;49.83;;;22.77;;
6195;SDS011;3131;42.630;23.382;2023-02-28T06:05:52;60.90;;;25.53;;
6195;SDS011;3131;42.630;23.382;2023-02-28T06:08:20;59.10;;;24.57;;
6195;SDS011;3131;42.630;23.382;2023-02-28T06:10:48;59.23;;;24.57;;
6195;SDS011;3131;42.630;23.382;2023-02-28T06:13:15;57.97;;;25.17;;
6195;SDS011;3131;42.630;23.382;2023-02-28T06:15:43;62.60;;;26.23;;
6195;SDS011;3131;42.630;23.382;2023-02-28T06:18:11;55.93;;;23.67;;
6195;SDS011;3131;42.630;23.382;2023-02-28T06:20:38;57.23;;;24.00;;
6195;SDS011;3131;42.630;23.382;2023-02-28T06:23:06;52.00;;;23.43;;
6195;SDS011;3131;42.630;23.382;2023-02-28T06:25:34;64.83;;;26.70;;
6195;SDS011;3131;42.630;23.382;2023-02-28T06:28:03;50.93;;;23.93;;
6195;SDS011;3131;42.630;23.382;2023-02-28T06:30:31;49.87;;;24.37;;
6195;SDS011;3131;42.630;23.382;2023-02-28T06:33:00;54.67;;;23.97;;
6195;SDS011;3131;42.630;23.382;2023-02-28T06:35:27;64.07;;;26.13;;
6195;SDS011;3131;42.630;23.382;2023-02-28T06:37:55;57.10;;;25.23;;
6195;SDS011;3131;42.630;23.382;2023-02-28T06:40:24;50.00;;;24.20;;
6195;SDS011;3131;42.630;23.382;2023-02-28T06:42:52;51.67;;;24.40;;
6195;SDS011;3131;42.630;23.382;2023-02-28T06:45:20;47.97;;;22.53;;
6195;SDS011;3131;42.630;23.382;2023-02-28T06:47:47;41.77;;;21.73;;
6195;SDS011;3131;42.630;23.382;2023-02-28T06:50:17;45.87;;;22.67;;
6195;SDS011;3131;42.630;23.382;2023-02-28T06:52:45;43.90;;;21.87;;
6195;SDS011;3131;42.630;23.382;2023-02-28T06:55:13;44.17;;;20.90;;
6195;SDS011;3131;42.630;23.382;2023-02-28T06:57:41;49.13;;;22.30;;
6195;SDS011;3131;42.630;23.382;2023-02-28T07:00:09;40.90;;;20.07;;
6195;SDS011;3131;42.630;23.382;2023-02-28T07:02:38;38.00;;;20.57;;
6195;SDS011;3131;42.630;23.382;2023-02-28T07:05:06;37.87;;;18.90;;
6195;SDS011;3131;42.630;23.382;2023-02-28T07:07:34;40.33;;;20.47;;
6195;SDS011;3131;42.630;23.382;2023-02-28T07:10:02;34.57;;;18.73;;
6195;SDS011;3131;42.630;23.382;2023-02-28T07:12:30;40.50;;;19.83;;
6195;SDS011;3131;42.630;23.382;2023-02-28T07:14:58;35.03;;;18.47;;
6195;SDS011;3131;42.630;23.382;2023-02-28T07:17:26;39.33;;;20.27;;
6195;SDS011;3131;42.630;23.382;2023-02-28T07:19:53;41.67;;;20.33;;
6195;SDS011;3131;42.630;23.382;2023-02-28T07:22:23;38.83;;;17.80;;
6195;SDS011;3131;42.630;23.382;2023-02-28T07:24:51;32.93;;;16.77;;
6195;SDS011;3131;42.630;23.382;2023-02-28T07:27:18;33.90;;;18.10;;
6195;SDS011;3131;42.630;23.382;2023-02-28T07:29:51;36.47;;;18.10;;
6195;SDS011;3131;42.630;23.382;2023-02-28T07:32:20;38.93;;;17.77;;
6195;SDS011;3131;42.630;23.382;2023-02-28T07:34:48;40.40;;;19.40;;
6195;SDS011;3131;42.630;23.382;2023-02-28T07:37:15;37.33;;;18.27;;
6195;SDS011;3131;42.630;23.382;2023-02-28T07:39:43;38.63;;;18.57;;
6195;SDS011;3131;42.630;23.382;2023-02-28T07:42:11;36.20;;;18.43;;
6195;SDS011;3131;42.630;23.382;2023-02-28T07:44:39;48.73;;;18.97;;
6195;SDS011;3131;42.630;23.382;2023-02-28T07:47:07;34.77;;;19.07;;
6195;SDS011;3131;42.630;23.382;2023-02-28T07:49:36;48.90;;;19.97;;
6195;SDS011;3131;42.630;23.382;2023-02-28T07:52:04;34.43;;;19.43;;
6195;SDS011;3131;42.630;23.382;2023-02-28T07:54:32;50.33;;;21.77;;
6195;SDS011;3131;42.630;23.382;2023-02-28T07:57:00;46.10;;;19.00;;
6195;SDS011;3131;42.630;23.382;2023-02-28T07:59:29;39.57;;;18.23;;
6195;SDS011;3131;42.630;23.382;2023-02-28T08:01:57;34.97;;;16.97;;
6195;SDS011;3131;42.630;23.382;2023-02-28T08:04:25;29.40;;;15.83;;
6195;SDS011;3131;42.630;23.382;2023-02-28T08:06:53;35.77;;;16.17;;
6195;SDS011;3131;42.630;23.382;2023-02-28T08:09:22;33.33;;;17.17;;
6195;SDS011;3131;42.630;23.382;2023-02-28T08:11:50;36.20;;;16.73;;
6195;SDS011;3131;42.630;23.382;2023-02-28T08:14:18;36.33;;;17.23;;
6195;SDS011;3131;42.630;23.382;2023-02-28T08:16:46;26.47;;;14.37;;
6195;SDS011;3131;42.630;23.382;2023-02-28T08:19:13;35.13;;;15.80;;
6195;SDS011;3131;42.630;23.382;2023-02-28T08:21:41;42.43;;;17.77;;
6195;SDS011;3131;42.630;23.382;2023-02-28T08:24:08;40.63;;;17.63;;
6195;SDS011;3131;42.630;23.382;2023-02-28T08:26:37;40.93;;;17.37;;
6195;SDS011;3131;42.630;23.382;2023-02-28T08:29:05;37.67;;;18.93;;
6195;SDS011;3131;42.630;23.382;2023-02-28T08:31:33;43.90;;;17.03;;
6195;SDS011;3131;42.630;23.382;2023-02-28T08:34:05;34.27;;;16.53;;
6195;SDS011;3131;42.630;23.382;2023-02-28T08:36:32;33.30;;;16.83;;
6195;SDS011;3131;42.630;23.382;2023-02-28T08:39:00;35.17;;;15.43;;
6195;SDS011;3131;42.630;23.382;2023-02-28T08:41:27;30.80;;;14.73;;
6195;SDS011;3131;42.630;23.382;2023-02-28T08:43:55;34.27;;;15.03;;
6195;SDS011;3131;42.630;23.382;2023-02-28T08:46:23;34.63;;;14.73;;
6195;SDS011;3131;42.630;23.382;2023-02-28T08:48:52;26.63;;;12.03;;
6195;SDS011;3131;42.630;23.382;2023-02-28T08:51:19;25.53;;;12.80;;
6195;SDS011;3131;42.630;23.382;2023-02-28T08:53:49;30.97;;;12.97;;
6195;SDS011;3131;42.630;23.382;2023-02-28T08:56:17;35.97;;;14.80;;
6195;SDS011;3131;42.630;23.382;2023-02-28T08:58:45;29.83;;;13.07;;
6195;SDS011;3131;42.630;23.382;2023-02-28T09:01:14;31.23;;;10.87;;
6195;SDS011;3131;42.630;23.382;2023-02-28T09:03:42;23.40;;;8.17;;
6195;SDS011;3131;42.630;23.382;2023-02-28T09:06:12;23.53;;;9.40;;
6195;SDS011;3131;42.630;23.382;2023-02-28T09:08:40;22.93;;;9.13;;
6195;SDS011;3131;42.630;23.382;2023-02-28T09:11:08;25.73;;;9.37;;
6195;SDS011;3131;42.630;23.382;2023-02-28T09:13:36;31.63;;;9.53;;
6195;SDS011;3131;42.630;23.382;2023-02-28T09:16:05;25.77;;;9.87;;
6195;SDS011;3131;42.630;23.382;2023-02-28T09:18:34;24.90;;;7.97;;
6195;SDS011;3131;42.630;23.382;2023-02-28T09:21:04;19.93;;;7.77;;
6195;SDS011;3131;42.630;23.382;2023-02-28T09:23:33;23.23;;;8.83;;
6195;SDS011;3131;42.630;23.382;2023-02-28T09:26:01;22.40;;;8.63;;
6195;SDS011;3131;42.630;23.382;2023-02-28T09:28:28;44.10;;;9.63;;
6195;SDS011;3131;42.630;23.382;2023-02-28T09:30:56;18.27;;;7.67;;
6195;SDS011;3131;42.630;23.382;2023-02-28T09:33:25;17.77;;;8.37;;
6195;SDS011;3131;42.630;23.382;2023-02-28T09:35:57;43.47;;;10.13;;
6195;SDS011;3131;42.630;23.382;2023-02-28T09:38:22;27.27;;;12.33;;
6195;SDS011;3131;42.630;23.382;2023-02-28T09:40:51;31.37;;;10.13;;
6195;SDS011;3131;42.630;23.382;2023-02-28T09:43:20;26.77;;;9.53;;
6195;SDS011;3131;42.630;23.382;2023-02-28T09:45:48;25.23;;;9.33;;
6195;SDS011;3131;42.630;23.382;2023-02-28T09:48:18;22.43;;;9.63;;
6195;SDS011;3131;42.630;23.382;2023-02-28T09:50:46;99.53;;;16.40;;
6195;SDS011;3131;42.630;23.382;2023-02-28T09:53:18;20.97;;;8.50;;
6195;SDS011;3131;42.630;23.382;2023-02-28T09:55:46;20.03;;;7.83;;
6195;SDS011;3131;42.630;23.382;2023-02-28T09:58:15;21.83;;;8.70;;
6195;SDS011;3131;42.630;23.382;2023-02-28T10:00:44;24.57;;;8.27;;
6195;SDS011;3131;42.630;23.382;2023-02-28T10:03:24;25.17;;;8.47;;
6195;SDS011;3131;42.630;23.382;2023-02-28T10:05:53;20.20;;;8.63;;
6195;SDS011;3131;42.630;23.382;2023-02-28T10:08:22;20.90;;;8.90;;
6195;SDS011;3131;42.630;23.382;2023-02-28T10:10:51;22.03;;;8.60;;
6195;SDS011;3131;42.630;23.382;2023-02-28T10:13:23;31.40;;;8.70;;
6195;SDS011;3131;42.630;23.382;2023-02-28T10:15:52;22.50;;;10.27;;
6195;SDS011;3131;42.630;23.382;2023-02-28T10:18:23;23.90;;;10.87;;
6195;SDS011;3131;42.630;23.382;2023-02-28T10:20:50;21.87;;;11.33;;
6195;SDS011;3131;42.630;23.382;2023-02-28T10:23:20;23.23;;;10.20;;
6195;SDS011;3131;42.630;23.382;2023-02-28T10:25:50;30.10;;;12.13;;
6195;SDS011;3131;42.630;23.382;2023-02-28T10:28:17;29.97;;;10.27;;
6195;SDS011;3131;42.630;23.382;2023-02-28T10:30:46;23.17;;;9.60;;
6195;SDS011;3131;42.630;23.382;2023-02-28T10:33:18;30.67;;;8.80;;
6195;SDS011;3131;42.630;23.382;2023-02-28T10:35:47;38.60;;;10.23;;
6195;SDS011;3131;42.630;23.382;2023-02-28T10:38:18;36.53;;;10.63;;
6195;SDS011;3131;42.630;23.382;2023-02-28T10:40:46;26.90;;;11.73;;
6195;SDS011;3131;42.630;23.382;2023-02-28T10:43:21;28.33;;;9.87;;
6195;SDS011;3131;42.630;23.382;2023-02-28T10:45:56;26.33;;;8.93;;
6195;SDS011;3131;42.630;23.382;2023-02-28T10:48:32;25.23;;;7.80;;
6195;SDS011;3131;42.630;23.382;2023-02-28T10:51:00;29.27;;;10.03;;
6195;SDS011;3131;42.630;23.382;2023-02-28T10:53:37;43.50;;;11.60;;
6195;SDS011;3131;42.630;23.382;2023-02-28T10:56:08;45.17;;;11.90;;
6195;SDS011;3131;42.630;23.382;2023-02-28T10:58:44;19.27;;;8.77;;
6195;SDS011;3131;42.630;23.382;2023-02-28T11:01:13;28.67;;;8.87;;
6195;SDS011;3131;42.630;23.382;2023-02-28T11:03:41;25.33;;;10.23;;
6195;SDS011;3131;42.630;23.382;2023-02-28T11:06:13;36.10;;;11.63;;
6195;SDS011;3131;42.630;23.382;2023-02-28T11:08:44;19.30;;;9.07;;
6195;SDS011;3131;42.630;23.382;2023-02-28T11:11:13;54.60;;;12.13;;
6195;SDS011;3131;42.630;23.382;2023-02-28T11:13:41;22.53;;;9.77;;
6195;SDS011;3131;42.630;23.382;2023-02-28T11:16:09;22.23;;;10.67;;
6195;SDS011;3131;42.630;23.382;2023-02-28T11:18:40;21.07;;;10.60;;
6195;SDS011;3131;42.630;23.382;2023-02-28T11:21:08;27.67;;;10.40;;
6195;SDS011;3131;42.630;23.382;2023-02-28T11:23:39;17.83;;;7.73;;
6195;SDS011;3131;42.630;23.382;2023-02-28T11:26:06;21.03;;;9.87;;
6195;SDS011;3131;42.630;23.382;2023-02-28T11:28:36;29.07;;;11.23;;
6195;SDS011;3131;42.630;23.382;2023-02-28T11:31:05;29.40;;;11.70;;
6195;SDS011;3131;42.630;23.382;2023-02-28T11:33:39;22.73;;;12.37;;
6195;SDS011;3131;42.630;23.382;2023-02-28T11:36:09;35.67;;;12.33;;
6195;SDS011;3131;42.630;23.382;2023-02-28T11:38:37;27.57;;;9.23;;
6195;SDS011;3131;42.630;23.382;2023-02-28T11:41:08;21.80;;;9.33;;
6195;SDS011;3131;42.630;23.382;2023-02-28T11:43:38;20.47;;;8.73;;
6195;SDS011;3131;42.630;23.382;2023-02-28T11:46:16;25.77;;;9.37;;
6195;SDS011;3131;42.630;23.382;2023-02-28T11:48:45;22.80;;;8.90;;
6195;SDS011;3131;42.630;23.382;2023-02-28T11:51:14;25.50;;;8.00;;
6195;SDS011;3131;42.630;23.382;2023-02-28T11:53:55;30.20;;;11.57;;
6195;SDS011;3131;42.630;23.382;2023-02-28T11:56:25;20.77;;;9.73;;
6195;SDS011;3131;42.630;23.382;2023-02-28T11:58:58;28.80;;;10.77;;
6195;SDS011;3131;42.630;23.382;2023-02-28T12:01:27;24.07;;;9.20;;
6195;SDS011;3131;42.630;23.382;2023-02-28T12:03:58;21.53;;;10.07;;
6195;SDS011;3131;42.630;23.382;2023-02-28T12:06:28;22.37;;;9.73;;
6195;SDS011;3131;42.630;23.382;2023-02-28T12:09:00;29.40;;;10.67;;
6195;SDS011;3131;42.630;23.382;2023-02-28T12:11:30;21.97;;;10.03;;
6195;SDS011;3131;42.630;23.382;2023-02-28T12:14:06;23.03;;;9.57;;
6195;SDS011;3131;42.630;23.382;2023-02-28T12:16:41;20.13;;;8.87;;
6195;SDS011;3131;42.630;23.382;2023-02-28T12:19:17;28.87;;;10.33;;
6195;SDS011;3131;42.630;23.382;2023-02-28T12:21:51;24.33;;;9.77;;
6195;SDS011;3131;42.630;23.382;2023-02-28T12:24:30;30.13;;;11.07;;
6195;SDS011;3131;42.630;23.382;2023-02-28T12:26:59;32.33;;;9.83;;
6195;SDS011;3131;42.630;23.382;2023-02-28T12:29:28;27.87;;;11.67;;
6195;SDS011;3131;42.630;23.382;2023-02-28T12:31:58;30.70;;;10.70;;
6195;SDS011;3131;42.630;23.382;2023-02-28T12:34:27;28.30;;;10.00;;
6195;SDS011;3131;42.630;23.382;2023-02-28T12:36:54;27.53;;;12.53;;
6195;SDS011;3131;42.630;23.382;2023-02-28T12:39:25;33.20;;;12.37;;
6195;SDS011;3131;42.630;23.382;2023-02-28T12:41:54;28.93;;;10.93;;
6195;SDS011;3131;42.630;23.382;2023-02-28T12:44:23;30.60;;;13.20;;
6195;SDS011;3131;42.630;23.382;2023-02-28T12:46:51;25.90;;;9.47;;
6195;SDS011;3131;42.630;23.382;2023-02-28T12:49:21;19.33;;;8.47;;
6195;SDS011;3131;42.630;23.382;2023-02-28T12:51:49;20.70;;;9.17;;
6195;SDS011;3131;42.630;23.382;2023-02-28T12:54:21;36.43;;;11.30;;
6195;SDS011;3131;42.630;23.382;2023-02-28T12:56:49;40.20;;;14.43;;
6195;SDS011;3131;42.630;23.382;2023-02-28T12:59:20;20.90;;;11.97;;
6195;SDS011;3131;42.630;23.382;2023-02-28T13:10:16;27.97;;;10.17;;
6195;SDS011;3131;42.630;23.382;2023-02-28T13:12:48;26.83;;;11.57;;
6195;SDS011;3131;42.630;23.382;2023-02-28T13:15:17;19.00;;;10.17;;
6195;SDS011;3131;42.630;23.382;2023-02-28T13:17:48;32.20;;;12.27;;
6195;SDS011;3131;42.630;23.382;2023-02-28T13:20:18;22.63;;;8.70;;
6195;SDS011;3131;42.630;23.382;2023-02-28T13:22:49;19.03;;;9.50;;
6195;SDS011;3131;42.630;23.382;2023-02-28T13:31:08;17.50;;;9.30;;
6195;SDS011;3131;42.630;23.382;2023-02-28T13:33:36;26.43;;;9.40;;
6195;SDS011;3131;42.630;23.382;2023-02-28T13:36:09;23.07;;;9.47;;
6195;SDS011;3131;42.630;23.382;2023-02-28T13:38:38;26.40;;;9.40;;
6195;SDS011;3131;42.630;23.382;2023-02-28T13:44:00;22.67;;;9.53;;
6195;SDS011;3131;42.630;23.382;2023-02-28T13:46:28;18.83;;;8.30;;
6195;SDS011;3131;42.630;23.382;2023-02-28T13:49:01;24.53;;;9.80;;
6195;SDS011;3131;42.630;23.382;2023-02-28T13:51:39;17.50;;;8.97;;
6195;SDS011;3131;42.630;23.382;2023-02-28T13:54:13;20.40;;;8.23;;
6195;SDS011;3131;42.630;23.382;2023-02-28T13:56:43;28.33;;;8.80;;
6195;SDS011;3131;42.630;23.382;2023-02-28T13:59:16;19.57;;;9.43;;
6195;SDS011;3131;42.630;23.382;2023-02-28T14:01:47;16.73;;;8.80;;
6195;SDS011;3131;42.630;23.382;2023-02-28T14:07:02;27.60;;;9.97;;
6195;SDS011;3131;42.630;23.382;2023-02-28T14:09:31;29.17;;;9.90;;
6195;SDS011;3131;42.630;23.382;2023-02-28T14:12:18;25.10;;;8.93;;
6195;SDS011;3131;42.630;23.382;2023-02-28T14:14:54;14.97;;;7.23;;
6195;SDS011;3131;42.630;23.382;2023-02-28T14:17:22;20.77;;;9.50;;
6195;SDS011;3131;42.630;23.382;2023-02-28T14:19:52;15.03;;;7.20;;
6195;SDS011;3131;42.630;23.382;2023-02-28T14:22:25;16.70;;;8.70;;
6195;SDS011;3131;42.630;23.382;2023-02-28T14:24:57;23.33;;;10.30;;
6195;SDS011;3131;42.630;23.382;2023-02-28T14:27:32;9.97;;;6.20;;
6195;SDS011;3131;42.630;23.382;2023-02-28T14:30:10;18.53;;;9.13;;
6195;SDS011;3131;42.630;23.382;2023-02-28T14:32:41;21.67;;;8.73;;
6195;SDS011;3131;42.630;23.382;2023-02-28T14:35:13;14.83;;;7.47;;
6195;SDS011;3131;42.630;23.382;2023-02-28T14:37:40;29.97;;;9.17;;
6195;SDS011;3131;42.630;23.382;2023-02-28T14:40:12;20.73;;;7.80;;
6195;SDS011;3131;42.630;23.382;2023-02-28T14:42:46;19.20;;;7.87;;
6195;SDS011;3131;42.630;23.382;2023-02-28T14:45:17;23.83;;;11.63;;
6195;SDS011;3131;42.630;23.382;2023-02-28T14:47:45;25.20;;;10.57;;
6195;SDS011;3131;42.630;23.382;2023-02-28T14:50:18;35.13;;;10.80;;
6195;SDS011;3131;42.630;23.382;2023-02-28T14:52:46;28.50;;;11.80;;
6195;SDS011;3131;42.630;23.382;2023-02-28T14:55:15;24.67;;;10.47;;
6195;SDS011;3131;42.630;23.382;2023-02-28T14:57:50;32.03;;;12.03;;
6195;SDS011;3131;42.630;23.382;2023-02-28T15:00:16;26.30;;;10.73;;
6195;SDS011;3131;42.630;23.382;2023-02-28T15:02:44;26.57;;;11.13;;
6195;SDS011;3131;42.630;23.382;2023-02-28T15:05:21;26.17;;;11.60;;
6195;SDS011;3131;42.630;23.382;2023-02-28T15:08:00;28.73;;;12.77;;
6195;SDS011;3131;42.630;23.382;2023-02-28T15:10:19;23.40;;;8.93;;
6195;SDS011;3131;42.630;23.382;2023-02-28T15:12:49;27.50;;;10.87;;
6195;SDS011;3131;42.630;23.382;2023-02-28T15:15:18;22.23;;;9.57;;
6195;SDS011;3131;42.630;23.382;2023-02-28T15:17:48;14.03;;;9.37;;